Time;durP1;ratioP1;P1;durP2;ratioP2;P2;SDS_P1;SDS_P2;PMS_P1;PMS_P2;Temp;Humidity;BMP_temperature;BMP_pressure;BME280_temperature;BME280_humidity;BME280_pressure;Samples;Min_cycle;Max_cycle;Signal;HPM_P1;HPM_P2
2022/05/11 00:02:54;;;;;;;7.73;5.73;;;;;;;9.73;85.53;97914.59;6249938;28;20894;-67
2022/05/11 00:05:56;;;;;;;7.03;5.83;;;;;;;9.71;85.75;97913.84;6258135;28;20272;-68
2022/05/11 00:08:58;;;;;;;6.10;5.50;;;;;;;9.70;84.98;97913.00;6257783;28;20484;-67
2022/05/11 00:12:00;;;;;;;6.80;6.17;;;;;;;9.67;85.08;97913.25;6257647;28;20231;-68
2022/05/11 00:15:02;;;;;;;7.03;6.07;;;;;;;9.62;85.26;97916.22;6256837;28;20345;-68
2022/05/11 00:18:05;;;;;;;6.33;5.70;;;;;;;9.59;85.32;97911.16;6253813;28;20211;-67
2022/05/11 00:21:08;;;;;;;6.37;5.87;;;;;;;9.56;85.13;97908.75;6255866;28;20212;-67
2022/05/11 00:24:10;;;;;;;6.43;5.60;;;;;;;9.54;86.04;97909.81;6214804;28;20690;-67
2022/05/11 00:27:12;;;;;;;7.67;6.07;;;;;;;9.52;85.10;97904.66;6245418;28;20226;-68
2022/05/11 00:30:14;;;;;;;6.73;6.13;;;;;;;9.53;85.97;97903.69;6257243;28;20642;-67
2022/05/11 00:33:17;;;;;;;5.97;5.47;;;;;;;9.52;85.83;97898.53;6258566;28;20216;-67
2022/05/11 00:36:19;;;;;;;7.80;6.47;;;;;;;9.50;85.83;97898.66;6255994;28;20769;-67
2022/05/11 00:39:21;;;;;;;6.70;4.97;;;;;;;9.44;86.04;97896.47;6257913;28;20701;-67
2022/05/11 00:42:23;;;;;;;6.37;5.77;;;;;;;9.43;85.34;97901.84;6257081;28;20223;-67
2022/05/11 00:45:25;;;;;;;8.37;5.53;;;;;;;9.42;85.57;97898.38;6257087;28;20625;-67
2022/05/11 00:51:52;;;;;;;5.73;5.23;;;;;;;9.38;85.74;97890.81;6249124;28;20581;-67
2022/05/11 00:55:00;;;;;;;7.37;5.67;;;;;;;9.35;85.79;97893.66;6239208;28;20231;-67
2022/05/11 00:58:20;;;;;;;5.90;5.40;;;;;;;9.32;85.55;97897.34;6256456;28;20617;-67
2022/05/11 01:01:50;;;;;;;6.60;5.57;;;;;;;9.28;85.61;97890.63;6252733;28;20227;-67
2022/05/11 01:04:56;;;;;;;6.73;6.00;;;;;;;9.22;86.18;97893.69;6211115;28;20230;-67
2022/05/11 01:07:59;;;;;;;7.30;6.57;;;;;;;9.17;85.67;97895.81;6217638;28;20293;-67
2022/05/11 01:11:03;;;;;;;6.07;5.57;;;;;;;9.14;85.83;97888.13;6231057;28;20238;-67
2022/05/11 01:14:09;;;;;;;6.00;5.47;;;;;;;9.12;85.74;97893.50;6232387;28;20311;-68
2022/05/11 01:17:12;;;;;;;7.07;6.10;;;;;;;9.08;86.39;97885.94;6213654;28;20258;-67
2022/05/11 01:20:18;;;;;;;9.03;6.00;;;;;;;9.08;86.23;97885.94;6231550;28;20244;-68
2022/05/11 01:23:43;;;;;;;6.77;6.17;;;;;;;9.05;86.50;97886.16;6231254;28;20258;-68
2022/05/11 01:26:45;;;;;;;8.23;6.00;;;;;;;9.02;86.24;97886.34;6231268;28;20239;-67
2022/05/11 01:29:47;;;;;;;6.00;5.50;;;;;;;9.01;86.88;97895.19;6231201;28;20683;-67
2022/05/11 01:32:52;;;;;;;7.73;5.87;;;;;;;8.98;86.44;97895.44;6231049;28;20284;-67
2022/05/11 01:36:09;;;;;;;6.60;5.50;;;;;;;8.96;86.75;97892.91;6231626;28;20698;-67
2022/05/11 01:39:11;;;;;;;5.97;5.37;;;;;;;8.91;86.63;97887.13;6230352;28;20238;-67
2022/05/11 01:42:13;;;;;;;5.87;5.33;;;;;;;8.90;87.04;97901.22;6230158;28;20293;-67
2022/05/11 01:45:15;;;;;;;6.17;5.53;;;;;;;8.89;86.61;97896.91;6231623;28;20234;-68
2022/05/11 01:48:18;;;;;;;6.27;5.67;;;;;;;8.89;87.26;97892.47;6230395;28;20223;-67
2022/05/11 01:51:20;;;;;;;6.30;5.43;;;;;;;8.88;86.04;97890.78;6231026;28;20239;-67
2022/05/11 01:54:22;;;;;;;7.60;5.90;;;;;;;8.85;87.12;97893.66;6229670;28;20691;-67
2022/05/11 01:57:24;;;;;;;8.43;5.93;;;;;;;8.82;86.75;97893.88;6230939;28;20308;-67
2022/05/11 02:00:27;;;;;;;5.63;5.13;;;;;;;8.80;87.28;97897.53;6230284;28;20223;-67
2022/05/11 02:03:29;;;;;;;5.53;5.13;;;;;;;8.78;86.66;97895.00;6230472;28;20232;-67
2022/05/11 02:09:51;;;;;;;6.33;5.73;;;;;;;8.74;86.61;97893.56;6230157;28;20284;-67
2022/05/11 02:12:57;;;;;;;5.90;5.30;;;;;;;8.72;86.52;97902.50;6230295;28;20226;-68
2022/05/11 02:15:59;;;;;;;6.57;5.53;;;;;;;8.70;86.47;97891.25;6231029;28;20450;-68
2022/05/11 02:19:01;;;;;;;6.37;5.87;;;;;;;8.68;86.56;97895.78;6229388;28;20254;-68
2022/05/11 02:22:03;;;;;;;6.13;5.53;;;;;;;8.66;87.16;97885.38;6231263;28;20231;-68
2022/05/11 02:25:06;;;;;;;6.33;5.37;;;;;;;8.67;86.34;97897.56;6230235;28;20713;-68
2022/05/11 02:28:10;;;;;;;8.10;5.47;;;;;;;8.64;86.73;97900.41;6229989;28;20318;-68
2022/05/11 02:31:13;;;;;;;5.50;4.90;;;;;;;8.62;86.85;97904.94;6229455;28;20239;-68
2022/05/11 02:35:12;;;;;;;5.73;5.23;;;;;;;8.58;87.22;97895.59;6230171;28;20224;-68
2022/05/11 02:37:37;;;;;;;6.30;4.77;;;;;;;8.51;86.39;97900.41;6229263;28;20228;-68
2022/05/11 02:40:40;;;;;;;5.47;5.00;;;;;;;8.50;86.97;97897.88;6230507;28;20314;-68
2022/05/11 02:43:42;;;;;;;6.13;5.53;;;;;;;8.46;87.06;97899.88;6229344;28;20318;-68
2022/05/11 02:46:44;;;;;;;5.33;4.83;;;;;;;8.46;86.80;97893.78;6230327;28;20313;-68
2022/05/11 02:49:46;;;;;;;5.17;4.77;;;;;;;8.45;86.75;97898.19;6230721;28;20235;-67
2022/05/11 02:52:48;;;;;;;5.60;5.10;;;;;;;8.41;87.62;97893.25;6230461;28;20234;-67
2022/05/11 02:55:53;;;;;;;5.67;5.13;;;;;;;8.38;87.05;97896.09;6212004;28;20305;-67
2022/05/11 02:58:55;;;;;;;5.57;5.00;;;;;;;8.35;87.28;97891.88;6229299;28;20768;-67
2022/05/11 03:01:58;;;;;;;5.73;5.23;;;;;;;8.31;87.64;97885.13;6228463;28;20224;-68
2022/05/11 03:05:00;;;;;;;5.10;4.60;;;;;;;8.32;87.16;97891.25;6229026;28;20245;-68
2022/05/11 03:08:02;;;;;;;5.43;5.03;;;;;;;8.32;86.89;97891.25;6229197;28;20226;-68
2022/05/11 03:11:05;;;;;;;5.23;4.77;;;;;;;8.30;87.62;97893.09;6229324;28;20305;-67
2022/05/11 03:14:09;;;;;;;6.33;5.10;;;;;;;8.28;87.03;97884.50;6228969;28;20318;-68
2022/05/11 03:17:11;;;;;;;5.43;4.80;;;;;;;8.25;87.69;97896.06;6228980;28;20223;-67
2022/05/11 03:20:13;;;;;;;7.83;4.90;;;;;;;8.22;87.13;97898.88;6229570;28;20362;-67
2022/05/11 03:23:15;;;;;;;5.77;4.57;;;;;;;8.19;86.97;97895.59;6228615;28;20315;-68
2022/05/11 03:26:17;;;;;;;6.17;4.93;;;;;;;8.17;87.41;97895.72;6211144;28;20266;-68
2022/05/11 03:29:19;;;;;;;4.80;4.40;;;;;;;8.17;87.15;97897.50;6229221;28;20695;-67
2022/05/11 03:35:43;;;;;;;5.30;4.80;;;;;;;8.17;87.13;97892.25;6230518;28;20215;-68
2022/05/11 03:38:45;;;;;;;5.30;4.70;;;;;;;8.19;87.30;97895.59;6227743;28;20228;-68
2022/05/11 03:41:47;;;;;;;7.33;5.20;;;;;;;8.19;87.55;97893.81;6228740;28;20262;-68
2022/05/11 03:44:49;;;;;;;5.17;4.53;;;;;;;8.18;87.13;97896.56;6227892;28;20230;-68
2022/05/11 03:47:52;;;;;;;5.77;5.13;;;;;;;8.19;87.37;97895.59;6232111;28;20220;-68
2022/05/11 03:50:55;;;;;;;5.40;5.00;;;;;;;8.21;87.70;97904.22;6229541;28;20818;-68
2022/05/11 03:53:57;;;;;;;5.47;4.97;;;;;;;8.23;87.60;97900.56;6228905;28;20238;-67
2022/05/11 03:56:59;;;;;;;6.57;4.77;;;;;;;8.26;87.28;97896.91;6228131;28;20734;-68
2022/05/11 04:00:01;;;;;;;5.73;5.13;;;;;;;8.29;87.25;97894.03;6228383;28;20300;-67
2022/05/11 04:03:12;;;;;;;5.23;4.73;;;;;;;8.30;87.56;97901.81;6226884;28;20313;-68
2022/05/11 04:06:15;;;;;;;5.40;4.90;;;;;;;8.33;87.57;97903.44;6228252;28;20212;-69
2022/05/11 04:09:16;;;;;;;6.80;5.27;;;;;;;8.35;87.72;97905.03;6228582;28;20200;-68
2022/05/11 04:12:18;;;;;;;5.93;4.70;;;;;;;8.39;87.37;97900.38;6210401;28;20216;-69
2022/05/11 04:15:21;;;;;;;5.47;4.93;;;;;;;8.39;87.42;97903.03;6227601;28;20355;-68
2022/05/11 04:18:23;;;;;;;5.40;4.90;;;;;;;8.43;87.55;97909.75;6186532;28;20232;-67
2022/05/11 04:21:25;;;;;;;5.50;4.83;;;;;;;8.45;87.08;97907.88;6186524;28;20354;-68
2022/05/11 04:24:27;;;;;;;5.47;4.40;;;;;;;8.47;87.46;97898.94;6212211;28;20310;-68
2022/05/11 04:27:29;;;;;;;5.23;4.80;;;;;;;8.52;87.78;97904.72;6227879;28;20223;-68
2022/05/11 04:30:31;;;;;;;6.00;5.40;;;;;;;8.57;87.31;97903.56;6227637;28;20807;-68
2022/05/11 04:33:35;;;;;;;5.03;4.63;;;;;;;8.61;87.92;97907.66;6210665;28;20238;-68
2022/05/11 04:36:39;;;;;;;5.10;4.60;;;;;;;8.67;87.19;97912.53;6227784;28;20715;-68
2022/05/11 04:39:41;;;;;;;6.50;4.43;;;;;;;8.71;86.80;97906.09;6209936;28;20239;-68
2022/05/11 04:42:44;;;;;;;5.10;4.70;;;;;;;8.77;86.84;97916.19;6231115;28;20231;-68
2022/05/11 04:45:47;;;;;;;4.63;4.13;;;;;;;8.82;86.95;97914.91;6231342;28;20238;-68
2022/05/11 04:48:49;;;;;;;4.90;4.50;;;;;;;8.84;87.40;97917.44;6206067;28;20233;-68
2022/05/11 04:52:01;;;;;;;4.23;3.87;;;;;;;8.89;87.48;97916.16;6215236;28;20235;-68
2022/05/11 04:55:05;;;;;;;4.57;4.13;;;;;;;8.92;86.94;97916.91;6214633;28;20228;-68
2022/05/11 04:58:07;;;;;;;5.63;4.83;;;;;;;8.96;87.59;97921.03;6232367;28;20239;-68
2022/05/11 05:01:09;;;;;;;5.10;4.60;;;;;;;8.99;87.04;97920.78;6233008;28;20737;-68
2022/05/11 05:04:12;;;;;;;5.10;4.70;;;;;;;9.02;86.84;97916.16;6225521;28;20246;-68
2022/05/11 05:07:15;;;;;;;5.97;5.43;;;;;;;9.10;87.02;97916.47;6255835;28;20318;-68
2022/05/11 05:10:19;;;;;;;4.97;4.57;;;;;;;9.16;87.04;97913.41;6256722;28;20231;-68
2022/05/11 05:13:21;;;;;;;5.67;5.17;;;;;;;9.22;87.06;97917.38;6255820;28;20223;-68
2022/05/11 05:16:23;;;;;;;5.00;4.60;;;;;;;9.25;87.42;97923.28;6256118;28;20264;-68
2022/05/11 05:19:25;;;;;;;4.90;4.50;;;;;;;9.30;87.21;97915.03;6256405;28;20235;-68
2022/05/11 05:22:27;;;;;;;5.03;4.63;;;;;;;9.34;86.66;97916.53;6256055;28;20223;-68
2022/05/11 05:25:29;;;;;;;5.17;4.77;;;;;;;9.41;86.95;97920.38;6255938;28;20244;-67
2022/05/11 05:31:52;;;;;;;5.60;5.10;;;;;;;9.59;86.66;97905.03;6256157;28;20232;-68
2022/05/11 05:34:57;;;;;;;5.10;4.70;;;;;;;9.69;87.01;97913.97;6255198;28;20231;-68
2022/05/11 05:38:00;;;;;;;5.17;4.70;;;;;;;9.77;86.98;97919.53;6255868;28;20273;-68
2022/05/11 05:41:02;;;;;;;6.20;5.47;;;;;;;9.85;86.60;97916.31;6255064;28;20330;-68
2022/05/11 05:44:06;;;;;;;5.50;4.73;;;;;;;9.93;86.93;97917.44;6254574;28;20754;-68
2022/05/11 05:47:09;;;;;;;5.53;4.80;;;;;;;10.03;86.79;97924.66;6228979;28;20235;-68
2022/05/11 05:50:11;;;;;;;5.60;5.10;;;;;;;10.12;87.03;97918.72;6235685;28;20247;-68
2022/05/11 05:53:14;;;;;;;5.17;4.77;;;;;;;10.20;86.60;97914.56;6255402;28;20238;-68
2022/05/11 05:56:16;;;;;;;5.43;4.93;;;;;;;10.30;86.85;97922.63;6237510;28;20322;-68
2022/05/11 05:59:18;;;;;;;6.97;5.17;;;;;;;10.40;86.79;97914.88;6254705;28;20243;-68
2022/05/11 06:02:20;;;;;;;6.07;5.17;;;;;;;10.51;86.79;97925.44;6254895;28;20318;-68
2022/05/11 06:05:22;;;;;;;5.30;4.83;;;;;;;10.62;86.57;97917.56;6254576;28;20256;-68
2022/05/11 06:08:25;;;;;;;5.87;5.10;;;;;;;10.73;86.71;97920.22;6255486;28;20239;-68
2022/05/11 06:11:26;;;;;;;5.43;4.93;;;;;;;10.86;86.72;97923.59;6255906;28;20227;-68
2022/05/11 06:14:28;;;;;;;5.37;4.87;;;;;;;10.99;86.58;97926.09;6254301;28;20326;-68
2022/05/11 06:17:32;;;;;;;5.50;5.00;;;;;;;11.13;86.33;97917.09;6255064;28;20762;-68
2022/05/11 06:20:35;;;;;;;5.67;5.13;;;;;;;11.30;86.56;97920.09;6254451;28;20314;-68
2022/05/11 06:23:38;;;;;;;5.20;4.80;;;;;;;11.48;86.19;97916.97;6254982;28;20228;-68
2022/05/11 06:26:41;;;;;;;5.40;4.90;;;;;;;11.63;85.95;97913.06;6236241;28;20244;-68
2022/05/11 06:30:05;;;;;;;4.63;4.23;;;;;;;11.84;85.66;97916.66;6235924;28;20278;-68
2022/05/11 06:33:08;;;;;;;5.37;4.60;;;;;;;12.06;85.19;97911.28;6254238;28;20692;-68
2022/05/11 06:36:10;;;;;;;4.87;4.33;;;;;;;12.32;84.67;97916.22;6254533;28;20220;-68
2022/05/11 06:39:12;;;;;;;5.67;4.37;;;;;;;12.63;83.84;97910.00;6254479;28;20228;-68
2022/05/11 06:42:18;;;;;;;4.90;4.50;;;;;;;12.93;83.02;97917.16;6253718;28;20213;-72
2022/05/11 06:45:23;;;;;;;5.30;4.77;;;;;;;13.29;82.04;97913.97;6254434;28;20586;-72
2022/05/11 06:48:27;;;;;;;4.63;4.23;;;;;;;13.71;81.21;97910.31;6254688;28;20227;-72
2022/05/11 06:51:29;;;;;;;4.90;4.47;;;;;;;14.12;80.45;97909.25;6254577;28;20317;-67
2022/05/11 07:01:12;;;;;;;4.50;3.80;;;;;;;15.29;76.99;97908.88;6253339;28;20234;-67
2022/05/11 07:04:14;;;;;;;4.30;3.90;;;;;;;15.63;76.54;97907.34;6252536;28;20272;-68
2022/05/11 07:07:18;;;;;;;4.73;3.77;;;;;;;15.97;75.82;97910.19;6256084;28;20280;-68
2022/05/11 07:10:20;;;;;;;3.83;3.53;;;;;;;16.37;74.61;97909.72;6253189;28;20272;-67
2022/05/11 07:13:22;;;;;;;3.43;3.10;;;;;;;16.79;73.04;97909.06;6253255;28;20230;-67
2022/05/11 07:16:25;;;;;;;4.60;3.40;;;;;;;17.07;72.41;97902.56;6254337;28;20231;-67
2022/05/11 07:19:28;;;;;;;3.20;2.97;;;;;;;17.46;70.67;97904.78;6252904;28;20227;-66
2022/05/11 07:22:30;;;;;;;3.13;2.87;;;;;;;17.85;69.46;97900.59;6252999;28;20318;-66
2022/05/11 07:25:33;;;;;;;3.37;2.70;;;;;;;18.25;68.50;97899.00;6253087;28;20265;-67
2022/05/11 07:28:35;;;;;;;3.43;2.60;;;;;;;18.77;66.61;97896.81;6253909;28;20736;-66
2022/05/11 07:31:37;;;;;;;3.60;2.87;;;;;;;19.08;65.35;97908.47;6236113;28;20259;-67
2022/05/11 07:34:39;;;;;;;3.00;2.70;;;;;;;19.60;63.16;97894.59;6252046;28;20231;-67
2022/05/11 07:37:44;;;;;;;2.50;2.30;;;;;;;20.22;61.15;97898.09;6253095;28;20610;-67
2022/05/11 07:40:46;;;;;;;2.40;2.20;;;;;;;20.55;59.57;97893.34;6253515;28;20714;-67
2022/05/11 07:43:48;;;;;;;2.57;2.37;;;;;;;20.69;57.92;97891.69;6252164;28;20710;-67
2022/05/11 07:46:51;;;;;;;3.37;2.30;;;;;;;20.87;57.91;97889.50;6251740;28;20717;-67
2022/05/11 07:49:53;;;;;;;2.00;1.90;;;;;;;21.33;55.88;97889.41;6252543;28;20227;-67
2022/05/11 07:52:55;;;;;;;2.47;2.27;;;;;;;21.76;54.89;97884.16;6252721;28;20264;-67
2022/05/11 08:02:43;;;;;;;2.33;2.13;;;;;;;22.52;46.76;97883.53;6246745;28;20312;-67
2022/05/11 08:05:45;;;;;;;2.83;2.30;;;;;;;22.85;47.47;97891.09;6253714;28;20227;-67
2022/05/11 08:08:47;;;;;;;2.87;2.37;;;;;;;23.13;48.18;97881.97;6235983;28;20230;-67
2022/05/11 08:11:50;;;;;;;2.30;2.10;;;;;;;23.19;47.73;97889.25;6251909;28;20270;-67
2022/05/11 08:14:53;;;;;;;2.03;1.93;;;;;;;23.40;47.48;97880.25;6253106;28;20277;-67
2022/05/11 08:17:55;;;;;;;1.90;1.80;;;;;;;23.53;47.96;97882.22;6248290;28;20241;-67
2022/05/11 08:20:57;;;;;;;1.93;1.80;;;;;;;23.92;46.54;97881.53;6257691;28;20317;-67
2022/05/11 08:24:00;;;;;;;2.50;2.30;;;;;;;23.87;46.91;97882.13;6257577;28;20325;-66
2022/05/11 08:27:03;;;;;;;2.20;2.00;;;;;;;24.08;46.32;97889.25;6257400;28;20246;-67
2022/05/11 08:33:30;;;;;;;2.70;2.00;;;;;;;25.02;43.38;97881.09;6255347;28;20223;-67
2022/05/11 08:36:53;;;;;;;2.20;2.00;;;;;;;25.53;42.54;97883.06;6257663;28;20602;-71
2022/05/11 08:39:56;;;;;;;2.30;2.10;;;;;;;25.80;42.98;97879.22;6256959;28;20235;-72
2022/05/11 08:42:59;;;;;;;2.20;1.90;;;;;;;26.02;40.46;97871.63;6257529;28;20309;-72
2022/05/11 08:46:17;;;;;;;2.70;2.20;;;;;;;26.15;36.85;97885.09;6258112;28;20231;-74
2022/05/11 08:49:40;;;;;;;2.20;2.00;;;;;;;26.52;36.37;97869.06;6257856;28;20227;-72
2022/05/11 08:52:56;;;;;;;2.65;1.98;;;;;;;27.05;35.71;97874.88;6257572;28;20314;-72
2022/05/11 08:56:04;;;;;;;2.42;1.73;;;;;;;27.32;36.96;97875.44;6249508;28;20223;-73
2022/05/11 08:59:16;;;;;;;2.58;2.38;;;;;;;27.72;36.72;97865.81;6256790;28;20224;-72
2022/05/11 09:02:26;;;;;;;2.40;2.20;;;;;;;28.06;33.57;97869.75;6257537;28;20232;-74
2022/05/11 09:05:31;;;;;;;2.10;2.00;;;;;;;28.21;32.37;97861.22;6257156;28;20611;-73
2022/05/11 09:08:37;;;;;;;2.35;2.10;;;;;;;28.22;30.94;97855.56;6256784;28;20242;-68
2022/05/11 09:11:52;;;;;;;2.10;1.98;;;;;;;28.33;30.90;97863.97;6238542;28;20280;-70
2022/05/11 09:14:57;;;;;;;2.45;2.25;;;;;;;28.06;30.83;97853.47;6248089;28;20318;-68
2022/05/11 09:18:06;;;;;;;2.58;1.85;;;;;;;28.55;31.69;97855.03;6255539;28;20382;-68
2022/05/11 09:21:20;;;;;;;2.78;2.10;;;;;;;28.85;28.59;97852.28;6255721;28;20250;-68
2022/05/11 09:24:30;;;;;;;3.17;2.00;;;;;;;29.20;30.75;97859.63;6238543;28;20231;-69
2022/05/11 09:27:37;;;;;;;2.88;2.30;;;;;;;29.34;30.85;97864.59;6256060;28;20303;-68
2022/05/11 09:30:42;;;;;;;3.20;2.55;;;;;;;28.61;32.44;97854.13;6256452;28;20659;-68
2022/05/11 09:34:03;;;;;;;2.47;2.28;;;;;;;28.60;34.36;97863.34;6256042;28;20305;-69
2022/05/11 09:37:36;;;;;;;2.40;2.20;;;;;;;28.87;30.58;97863.75;6255747;28;20250;-67
2022/05/11 09:40:58;;;;;;;3.88;2.33;;;;;;;27.91;34.01;97866.63;6255701;28;20773;-68
2022/05/11 09:44:23;;;;;;;3.50;2.10;;;;;;;26.95;34.95;97867.22;6255713;28;20843;-67
2022/05/11 09:47:34;;;;;;;1.98;1.80;;;;;;;27.16;36.41;97860.56;6255052;28;20235;-67
2022/05/11 09:50:36;;;;;;;2.03;1.85;;;;;;;28.58;36.36;97853.75;6256277;28;20512;-67
2022/05/11 09:53:47;;;;;;;5.35;2.42;;;;;;;29.48;35.03;97850.72;6255439;28;20799;-67
2022/05/11 09:57:09;;;;;;;2.58;2.20;;;;;;;29.93;33.14;97848.97;6253836;28;20259;-67
2022/05/11 10:00:29;;;;;;;3.25;2.40;;;;;;;30.00;29.43;97841.50;6254957;28;20421;-68
2022/05/11 10:03:31;;;;;;;2.53;2.40;;;;;;;30.31;29.20;97844.78;6254774;28;20780;-67
2022/05/11 10:06:49;;;;;;;2.28;2.05;;;;;;;30.27;26.87;97844.44;6255248;28;20284;-68
2022/05/11 10:09:59;;;;;;;4.45;2.38;;;;;;;30.70;29.38;97849.31;6254462;28;20232;-68
2022/05/11 10:13:24;;;;;;;2.60;2.10;;;;;;;31.06;27.17;97834.31;6256133;28;20239;-68
2022/05/11 10:23:31;;;;;;;2.50;2.30;;;;;;;31.78;25.97;97828.78;6254756;28;20297;-68
2022/05/11 10:26:46;;;;;;;2.20;2.00;;;;;;;31.74;23.98;97826.84;6254478;28;20654;-68
2022/05/11 10:30:07;;;;;;;2.22;2.00;;;;;;;31.55;25.59;97837.19;6254634;28;20706;-68
2022/05/11 10:33:34;;;;;;;2.50;2.20;;;;;;;31.25;28.00;97831.34;6253629;28;20243;-68
2022/05/11 10:36:58;;;;;;;2.38;1.92;;;;;;;30.58;30.50;97829.47;6254287;28;20709;-68
2022/05/11 10:40:32;;;;;;;2.33;2.10;;;;;;;30.33;31.24;97829.88;6252715;28;20234;-67
2022/05/11 10:43:52;;;;;;;2.17;2.00;;;;;;;31.30;29.50;97815.06;6254364;28;20265;-68
2022/05/11 10:47:16;;;;;;;2.35;2.15;;;;;;;31.83;26.26;97808.94;6244818;28;20714;-68
2022/05/11 10:50:22;;;;;;;2.30;2.10;;;;;;;32.39;26.72;97812.25;6254672;28;20265;-68
2022/05/11 10:53:33;;;;;;;2.33;2.10;;;;;;;33.04;26.52;97808.41;6253492;28;20742;-68
2022/05/11 10:57:25;;;;;;;2.65;2.00;;;;;;;33.11;21.27;97798.88;6254377;28;20310;-68
2022/05/11 11:00:32;;;;;;;3.10;2.20;;;;;;;33.03;23.69;97795.81;6202617;28;20369;-68
2022/05/11 11:03:34;;;;;;;4.43;2.65;;;;;;;32.95;22.12;97794.38;6253287;28;20241;-68
2022/05/11 11:07:13;;;;;;;2.40;1.98;;;;;;;32.95;21.88;97794.38;6252297;28;20227;-68
2022/05/11 11:10:32;;;;;;;2.13;2.03;;;;;;;33.61;21.93;97792.84;6252356;28;20231;-68
2022/05/11 11:13:37;;;;;;;2.33;2.13;;;;;;;33.98;22.04;97792.69;6253704;28;20231;-68
2022/05/11 11:16:41;;;;;;;2.35;2.15;;;;;;;33.55;22.47;97796.63;6253362;28;20337;-68
2022/05/11 11:19:49;;;;;;;2.47;2.38;;;;;;;32.97;24.35;97793.03;6252922;28;20725;-68
2022/05/11 11:23:06;;;;;;;2.03;1.90;;;;;;;32.74;25.13;97785.25;6253103;28;20717;-68
2022/05/11 11:26:30;;;;;;;2.30;2.10;;;;;;;32.89;26.69;97779.88;6254321;28;20235;-68
2022/05/11 11:29:37;;;;;;;2.13;2.03;;;;;;;32.68;27.68;97769.00;6253015;28;20322;-68
2022/05/11 11:33:15;;;;;;;2.58;2.20;;;;;;;33.11;28.08;97767.97;6252003;28;20253;-68
2022/05/11 11:36:26;;;;;;;2.60;2.40;;;;;;;33.72;22.67;97767.16;6251682;28;20224;-69
2022/05/11 11:40:26;;;;;;;3.20;2.53;;;;;;;34.04;22.32;97761.47;6254676;28;20388;-68
2022/05/11 11:43:52;;;;;;;2.20;2.00;;;;;;;34.28;24.82;97761.81;6224749;28;20705;-68
2022/05/11 11:46:56;;;;;;;2.50;2.10;;;;;;;34.47;23.70;97753.84;6233696;28;20718;-68
2022/05/11 11:49:58;;;;;;;2.25;2.10;;;;;;;34.22;20.25;97754.66;6253050;28;20602;-69
2022/05/11 11:53:20;;;;;;;3.78;2.58;;;;;;;33.74;20.38;97745.00;6257457;28;20365;-68
2022/05/11 11:56:25;;;;;;;2.55;2.35;;;;;;;33.70;21.08;97749.34;6258953;28;20333;-69
2022/05/11 11:59:28;;;;;;;2.10;1.90;;;;;;;34.21;21.17;97752.19;6258128;28;20219;-69
2022/05/11 12:02:39;;;;;;;2.10;2.00;;;;;;;34.57;19.64;97742.06;6256504;28;20709;-69
2022/05/11 12:05:50;;;;;;;2.33;2.10;;;;;;;34.60;19.62;97741.53;6233308;28;20603;-69
2022/05/11 12:15:38;;;;;;;2.50;2.30;;;;;;;34.01;22.13;97731.09;6221955;28;20228;-69
2022/05/11 12:18:42;;;;;;;2.42;2.22;;;;;;;34.62;23.49;97728.38;6229437;28;20231;-68
2022/05/11 12:21:56;;;;;;;2.78;2.25;;;;;;;35.02;23.55;97728.31;6233243;28;20228;-69
2022/05/11 12:25:28;;;;;;;2.70;2.45;;;;;;;34.91;20.65;97723.13;6224854;28;20664;-68
2022/05/11 12:28:42;;;;;;;3.53;2.60;;;;;;;35.37;21.07;97718.31;6233823;28;20289;-68
2022/05/11 12:31:51;;;;;;;2.28;2.08;;;;;;;36.08;19.97;97721.47;6231858;28;20238;-68
2022/05/11 12:34:54;;;;;;;3.45;2.08;;;;;;;36.04;20.46;97714.06;6224623;28;20321;-68
2022/05/11 12:37:58;;;;;;;2.33;2.03;;;;;;;36.15;19.86;97699.16;6215040;28;20669;-69
2022/05/11 12:41:08;;;;;;;3.42;2.20;;;;;;;36.10;19.99;97701.94;6233174;28;20674;-69
2022/05/11 12:44:14;;;;;;;3.25;2.22;;;;;;;35.66;19.31;97701.94;6231849;28;20231;-68
2022/05/11 12:47:16;;;;;;;2.47;2.28;;;;;;;34.67;22.94;97706.41;6231997;28;20307;-69
2022/05/11 12:50:23;;;;;;;1.98;1.88;;;;;;;34.32;23.16;97697.16;6232002;28;20337;-68
2022/05/11 12:53:29;;;;;;;4.30;2.60;;;;;;;34.68;21.76;97697.91;6232231;28;20653;-69
2022/05/11 12:56:34;;;;;;;2.72;2.13;;;;;;;35.03;19.63;97693.47;6231938;28;20285;-69
2022/05/11 12:59:37;;;;;;;2.25;2.05;;;;;;;35.60;20.35;97692.09;6231523;28;20692;-69
2022/05/11 13:02:41;;;;;;;2.67;2.17;;;;;;;36.05;19.18;97674.50;6230771;28;20304;-69
2022/05/11 13:05:45;;;;;;;2.00;1.90;;;;;;;36.23;18.23;97680.16;6231558;28;20232;-69
2022/05/11 13:08:50;;;;;;;2.55;2.35;;;;;;;35.32;19.90;97674.41;6231170;28;20234;-69
2022/05/11 13:11:53;;;;;;;2.40;2.20;;;;;;;35.50;20.79;97671.03;6233243;28;20703;-69
2022/05/11 13:14:58;;;;;;;2.60;2.38;;;;;;;35.99;20.41;97657.25;6236083;28;20454;-69
2022/05/11 13:18:01;;;;;;;2.55;2.35;;;;;;;36.45;20.62;97663.16;6230645;28;20710;-69
2022/05/11 13:21:07;;;;;;;4.70;2.03;;;;;;;36.77;20.67;97657.06;6230739;28;20208;-69
2022/05/11 13:24:09;;;;;;;4.65;2.00;;;;;;;36.69;22.62;97654.97;6231805;28;20295;-69
2022/05/11 13:27:45;;;;;;;2.90;2.20;;;;;;;36.44;20.40;97646.94;6231283;28;20311;-69
2022/05/11 13:30:48;;;;;;;2.88;2.30;;;;;;;36.82;21.82;97645.22;6230743;28;20232;-69
2022/05/11 13:33:51;;;;;;;4.50;2.35;;;;;;;37.05;21.80;97646.28;6231513;28;20282;-69
2022/05/11 13:36:53;;;;;;;2.60;2.22;;;;;;;37.21;21.42;97634.00;6230874;28;20504;-70
2022/05/11 13:39:57;;;;;;;3.03;2.58;;;;;;;37.25;19.62;97635.03;6213134;28;20788;-69
2022/05/11 13:43:01;;;;;;;4.68;2.25;;;;;;;37.04;19.72;97637.22;6229878;28;20328;-69
2022/05/11 13:46:28;;;;;;;15.82;4.82;;;;;;;37.45;19.58;97622.91;6228482;28;20231;-69
2022/05/11 13:49:30;;;;;;;39.90;11.20;;;;;;;38.18;18.57;97622.34;6230969;28;20236;-69
2022/05/11 13:52:51;;;;;;;5.90;3.90;;;;;;;38.73;19.02;97623.28;6226898;28;20241;-70
2022/05/11 13:56:21;;;;;;;2.50;2.30;;;;;;;38.70;16.55;97618.34;6230078;28;20747;-72
2022/05/11 13:59:25;;;;;;;3.20;1.90;;;;;;;38.55;18.86;97616.72;6222959;28;20837;-70
2022/05/11 14:02:36;;;;;;;4.38;2.45;;;;;;;39.41;16.18;97605.84;6227390;28;20228;-70
2022/05/11 14:05:45;;;;;;;2.78;2.35;;;;;;;39.54;18.66;97604.16;6200987;28;20232;-69
2022/05/11 14:08:47;;;;;;;5.03;2.28;;;;;;;40.00;16.45;97596.41;6229098;28;20223;-70
2022/05/11 14:11:49;;;;;;;3.08;2.40;;;;;;;40.43;16.45;97582.81;6225852;28;20234;-70
2022/05/11 14:14:52;;;;;;;2.92;2.63;;;;;;;40.68;15.08;97586.03;6210070;28;20227;-69
2022/05/11 14:17:54;;;;;;;2.85;2.63;;;;;;;41.25;14.95;97573.00;6222813;28;20227;-70
2022/05/11 14:20:56;;;;;;;6.47;2.25;;;;;;;41.87;15.96;97583.78;6229169;28;20678;-70
2022/05/11 14:23:58;;;;;;;2.40;2.20;;;;;;;42.06;16.78;97580.66;6199487;28;20881;-70
2022/05/11 14:27:01;;;;;;;4.15;3.38;;;;;;;41.54;16.51;97580.69;6217541;28;20297;-71
2022/05/11 14:30:05;;;;;;;6.95;5.00;;;;;;;41.46;14.68;97581.47;6224115;28;20239;-70
2022/05/11 14:33:11;;;;;;;2.42;2.30;;;;;;;41.57;13.57;97568.97;6226429;28;20703;-70
2022/05/11 14:36:13;;;;;;;3.83;2.72;;;;;;;42.27;13.68;97576.03;6224354;28;20302;-70
2022/05/11 14:39:18;;;;;;;2.95;2.25;;;;;;;42.96;13.65;97576.56;6193522;28;20573;-70
2022/05/11 14:42:20;;;;;;;6.90;3.85;;;;;;;43.22;13.08;97564.53;6211131;28;20236;-69
2022/05/11 14:45:22;;;;;;;7.43;3.78;;;;;;;42.72;13.20;97563.31;6228346;28;20261;-70
2022/05/11 14:48:28;;;;;;;4.53;2.90;;;;;;;42.26;13.52;97560.53;6228638;28;20764;-69
2022/05/11 14:51:30;;;;;;;4.43;2.50;;;;;;;42.79;13.80;97562.81;6216968;28;20885;-70
2022/05/11 14:54:33;;;;;;;4.68;3.10;;;;;;;43.14;13.66;97554.22;6222287;28;20284;-70
2022/05/11 15:04:27;;;;;;;2.75;2.50;;;;;;;42.17;13.46;97551.41;6224711;28;20232;-69
2022/05/11 15:07:31;;;;;;;3.70;2.60;;;;;;;41.59;14.16;97550.88;6224266;28;20312;-69
2022/05/11 15:10:33;;;;;;;2.83;2.42;;;;;;;41.13;16.16;97554.25;6232668;28;20242;-69
2022/05/11 15:13:36;;;;;;;4.55;2.47;;;;;;;41.05;14.42;97541.19;6229904;28;20430;-69
2022/05/11 15:16:43;;;;;;;4.50;2.28;;;;;;;41.01;15.32;97544.94;6232882;28;20313;-69
2022/05/11 15:19:45;;;;;;;2.88;2.42;;;;;;;40.58;16.82;97553.91;6252224;28;20714;-69
2022/05/11 15:22:47;;;;;;;2.45;2.25;;;;;;;40.47;17.89;97547.03;6234908;28;20238;-69
2022/05/11 15:25:49;;;;;;;4.43;2.78;;;;;;;40.73;17.76;97547.94;6253401;28;20425;-70
2022/05/11 15:28:52;;;;;;;6.53;2.55;;;;;;;40.34;18.62;97545.19;6252613;28;20269;-69
2022/05/11 15:31:54;;;;;;;9.50;3.85;;;;;;;39.88;19.71;97540.06;6253488;28;20314;-69
2022/05/11 15:34:57;;;;;;;6.57;3.95;;;;;;;40.26;19.89;97540.41;6245407;28;20241;-69